createdAt,value
2023-03-11T00:01:12.503Z,61.20
2023-03-11T00:03:40.260Z,75.47
2023-03-11T00:06:07.521Z,65.90
2023-03-11T00:08:35.145Z,57.80
2023-03-11T00:11:02.407Z,53.55
2023-03-11T00:13:30.579Z,49.40
2023-03-11T00:15:57.976Z,52.85
2023-03-11T00:18:28.065Z,66.63
2023-03-11T00:20:57.825Z,56.35
2023-03-11T00:23:26.388Z,53.65
2023-03-11T00:25:53.612Z,58.95
2023-03-11T00:28:25.285Z,55.78
2023-03-11T00:30:52.822Z,49.03
2023-03-11T00:33:20.750Z,50.58
2023-03-11T00:35:47.859Z,81.43
2023-03-11T00:38:16.624Z,62.10
2023-03-11T00:40:46.624Z,49.97
2023-03-11T00:43:14.718Z,57.17
2023-03-11T00:45:42.291Z,56.60
2023-03-11T00:48:11.348Z,65.57
2023-03-11T00:50:38.595Z,56.35
2023-03-11T00:53:06.914Z,48.85
2023-03-11T00:55:35.203Z,49.90
2023-03-11T00:58:06.931Z,52.05
2023-03-11T01:00:43.288Z,49.10
2023-03-11T01:03:10.744Z,44.42
2023-03-11T01:05:38.063Z,44.30
2023-03-11T01:08:05.791Z,42.58
2023-03-11T01:10:34.528Z,41.22
2023-03-11T01:13:02.912Z,45.75
2023-03-11T01:15:33.762Z,45.38
2023-03-11T01:18:01.930Z,44.38
2023-03-11T01:20:29.073Z,46.97
2023-03-11T01:22:56.785Z,47.65
2023-03-11T01:25:25.167Z,50.72
2023-03-11T01:27:52.498Z,49.67
2023-03-11T01:30:23.116Z,61.60
2023-03-11T01:32:52.278Z,53.22
2023-03-11T01:35:21.479Z,51.15
2023-03-11T01:37:48.893Z,53.97
2023-03-11T01:40:26.122Z,58.25
2023-03-11T01:42:53.810Z,42.22
2023-03-11T01:45:27.098Z,41.45
2023-03-11T01:47:55.243Z,47.75
2023-03-11T01:50:23.262Z,41.08
2023-03-11T01:52:50.878Z,41.83
2023-03-11T01:55:19.604Z,44.28
2023-03-11T01:57:48.213Z,38.75
2023-03-11T02:00:16.341Z,42.67
2023-03-11T02:02:52.564Z,39.38
2023-03-11T02:05:22.216Z,45.05
2023-03-11T02:07:51.202Z,39.05
2023-03-11T02:10:20.720Z,40.95
2023-03-11T02:12:50.150Z,41.45
2023-03-11T02:15:25.091Z,39.58
2023-03-11T02:17:53.646Z,41.33
2023-03-11T02:20:42.660Z,41.00
2023-03-11T02:23:15.094Z,46.63
2023-03-11T02:25:52.951Z,52.20
2023-03-11T02:28:21.540Z,61.20
2023-03-11T02:30:50.918Z,56.83
2023-03-11T02:33:19.553Z,63.65
2023-03-11T02:35:47.892Z,72.20
2023-03-11T02:38:15.387Z,126.28
2023-03-11T02:41:09.775Z,123.20
2023-03-11T02:43:43.500Z,91.60
2023-03-11T02:46:14.265Z,135.88
2023-03-11T02:48:42.304Z,88.20
2023-03-11T02:51:09.324Z,110.72
2023-03-11T02:53:44.152Z,127.97
2023-03-11T02:56:11.206Z,121.95
2023-03-11T02:58:38.931Z,125.40
2023-03-11T03:01:06.198Z,123.47
2023-03-11T03:03:34.275Z,123.30
2023-03-11T03:06:02.223Z,184.10
2023-03-11T03:08:29.543Z,151.00
2023-03-11T03:10:56.983Z,87.65
2023-03-11T03:13:24.500Z,124.82
2023-03-11T03:15:52.195Z,136.48
2023-03-11T03:18:19.589Z,113.53
2023-03-11T03:20:46.804Z,157.02
2023-03-11T03:23:16.819Z,118.13
2023-03-11T03:25:45.077Z,161.30
2023-03-11T03:28:13.332Z,114.38
2023-03-11T03:30:44.655Z,157.48
2023-03-11T03:33:13.434Z,114.22
2023-03-11T03:35:42.915Z,99.28
2023-03-11T03:38:16.500Z,97.78
2023-03-11T03:40:48.028Z,117.93
2023-03-11T03:43:18.240Z,110.75
2023-03-11T03:45:55.079Z,171.63
2023-03-11T03:48:23.367Z,85.80
2023-03-11T03:50:50.975Z,81.45
2023-03-11T03:53:19.181Z,95.07
2023-03-11T03:55:46.798Z,75.75
2023-03-11T03:58:14.876Z,89.07
2023-03-11T04:00:43.834Z,68.40
2023-03-11T04:03:11.446Z,92.78
2023-03-11T04:05:48.335Z,94.45
2023-03-11T04:08:15.851Z,98.75
2023-03-11T04:10:43.978Z,105.65
2023-03-11T04:13:11.670Z,57.67
2023-03-11T04:15:42.313Z,75.95
2023-03-11T04:18:10.202Z,85.25
2023-03-11T04:20:39.026Z,85.07
2023-03-11T04:23:06.352Z,106.53
2023-03-11T04:25:34.422Z,104.95
2023-03-11T04:28:02.176Z,58.83
2023-03-11T04:30:31.627Z,83.20
2023-03-11T04:32:59.087Z,75.35
2023-03-11T04:35:26.285Z,74.55
2023-03-11T04:37:53.925Z,95.53
2023-03-11T04:40:21.983Z,72.00
2023-03-11T04:42:49.584Z,76.20
2023-03-11T04:45:18.507Z,66.28
2023-03-11T04:47:51.759Z,49.28
2023-03-11T04:50:19.995Z,51.90
2023-03-11T04:52:47.919Z,55.28
2023-03-11T04:55:15.793Z,43.60
2023-03-11T04:57:44.066Z,37.03
2023-03-11T05:00:15.790Z,34.10
2023-03-11T05:02:47.367Z,37.03
2023-03-11T05:05:14.540Z,29.23
2023-03-11T05:07:43.323Z,19.23
2023-03-11T05:10:12.034Z,28.67
2023-03-11T05:12:40.742Z,26.52
2023-03-11T05:15:08.602Z,20.33
2023-03-11T05:17:36.104Z,17.15
2023-03-11T05:20:06.289Z,16.08
2023-03-11T05:22:34.282Z,15.50
2023-03-11T05:25:01.846Z,14.00
2023-03-11T05:27:29.947Z,13.65
2023-03-11T05:29:57.902Z,8.63
2023-03-11T05:32:27.249Z,11.52
2023-03-11T05:34:55.299Z,11.38
2023-03-11T05:37:22.798Z,9.73
2023-03-11T05:39:53.049Z,8.70
2023-03-11T05:42:21.629Z,11.25
2023-03-11T05:44:51.833Z,9.52
2023-03-11T05:47:20.020Z,9.10
2023-03-11T05:49:49.283Z,13.07
2023-03-11T05:52:18.746Z,11.02
2023-03-11T05:54:49.890Z,12.75
2023-03-11T05:57:19.160Z,12.27
2023-03-11T05:59:46.250Z,8.35
2023-03-11T06:02:14.465Z,10.15
2023-03-11T06:04:42.117Z,9.57
2023-03-11T06:07:12.210Z,10.32
2023-03-11T06:09:40.035Z,7.63
2023-03-11T06:12:12.186Z,12.52
2023-03-11T06:14:58.267Z,10.02
2023-03-11T06:17:27.034Z,10.98
2023-03-11T06:19:55.323Z,10.63
2023-03-11T06:22:22.865Z,19.83
2023-03-11T06:24:50.093Z,11.75
2023-03-11T06:27:17.666Z,13.45
2023-03-11T06:29:51.595Z,16.85
2023-03-11T06:32:19.094Z,8.68
2023-03-11T06:34:50.579Z,7.80
2023-03-11T06:37:19.117Z,8.75
2023-03-11T06:39:46.211Z,8.13
2023-03-11T06:42:26.864Z,10.50
2023-03-11T06:44:57.454Z,7.72
2023-03-11T06:47:28.722Z,7.40
2023-03-11T06:49:55.889Z,9.38
2023-03-11T06:52:23.296Z,8.32
2023-03-11T06:54:50.457Z,9.60
2023-03-11T06:57:18.173Z,7.15
2023-03-11T06:59:49.845Z,12.07
2023-03-11T07:02:18.611Z,7.13
2023-03-11T07:04:50.305Z,9.20
2023-03-11T07:07:22.796Z,9.20
2023-03-11T07:09:52.070Z,6.60
2023-03-11T07:12:23.034Z,7.00
2023-03-11T07:14:57.731Z,6.97
2023-03-11T07:17:26.830Z,7.28
2023-03-11T07:19:56.740Z,7.15
2023-03-11T07:22:24.096Z,6.18
2023-03-11T07:24:51.209Z,6.82
2023-03-11T07:27:19.776Z,8.55
2023-03-11T07:29:47.019Z,5.80
2023-03-11T07:32:15.198Z,10.45
2023-03-11T07:34:42.425Z,24.13
2023-03-11T07:37:10.055Z,10.73
2023-03-11T07:39:38.700Z,7.03
2023-03-11T07:42:06.197Z,6.45
2023-03-11T07:44:37.134Z,50.03
2023-03-11T07:47:05.975Z,28.48
2023-03-11T07:49:34.232Z,29.67
2023-03-11T07:52:01.617Z,13.63
2023-03-11T07:54:28.681Z,8.88
2023-03-11T07:56:56.013Z,8.23
2023-03-11T07:59:23.268Z,8.00
2023-03-11T08:01:50.766Z,29.30
2023-03-11T08:04:17.981Z,15.57
2023-03-11T08:06:47.559Z,13.63
2023-03-11T08:09:15.022Z,11.18
2023-03-11T08:11:42.615Z,13.20
2023-03-11T08:14:10.081Z,9.88
2023-03-11T08:16:40.046Z,6.85
2023-03-11T08:19:07.219Z,8.55
2023-03-11T08:21:34.998Z,8.82
2023-03-11T08:24:03.358Z,7.05
2023-03-11T08:26:32.224Z,9.10
2023-03-11T08:28:59.674Z,6.28
2023-03-11T08:31:30.081Z,13.48
2023-03-11T08:34:02.659Z,8.55
2023-03-11T08:36:34.318Z,12.88
2023-03-11T08:39:01.934Z,11.50
2023-03-11T08:41:29.665Z,8.63
2023-03-11T08:43:56.707Z,9.73
2023-03-11T08:46:36.735Z,6.82
2023-03-11T08:49:05.017Z,10.45
2023-03-11T08:51:34.258Z,10.55
2023-03-11T08:54:01.928Z,22.15
2023-03-11T08:56:33.078Z,19.58
2023-03-11T08:59:00.447Z,13.73
2023-03-11T09:01:29.746Z,8.40
2023-03-11T09:03:57.381Z,11.63
2023-03-11T09:06:25.520Z,11.65
2023-03-11T09:08:52.622Z,9.35
2023-03-11T09:11:22.084Z,8.25
2023-03-11T09:13:49.980Z,9.93
2023-03-11T09:16:22.496Z,9.48
2023-03-11T09:18:49.862Z,14.55
2023-03-11T09:21:17.655Z,8.98
2023-03-11T09:23:45.244Z,9.32
2023-03-11T09:26:13.473Z,10.75
2023-03-11T09:28:42.250Z,14.43
2023-03-11T09:31:10.204Z,8.82
2023-03-11T09:33:38.813Z,12.20
2023-03-11T09:36:08.477Z,13.38
2023-03-11T09:38:35.518Z,13.93
2023-03-11T09:41:21.357Z,11.98
2023-03-11T09:44:08.754Z,10.55
2023-03-11T09:46:55.799Z,14.15
2023-03-11T09:49:25.977Z,14.25
2023-03-11T09:52:19.174Z,14.75
2023-03-11T09:54:55.718Z,12.65
2023-03-11T09:57:27.197Z,10.27
2023-03-11T09:59:55.031Z,11.88
2023-03-11T10:02:28.211Z,15.15
2023-03-11T10:05:01.099Z,14.63
2023-03-11T10:07:34.218Z,11.43
2023-03-11T10:10:01.500Z,19.92
2023-03-11T10:12:53.626Z,21.08
2023-03-11T10:15:29.873Z,11.80
2023-03-11T10:18:18.881Z,9.45
2023-03-11T10:21:13.335Z,10.82
2023-03-11T10:24:10.011Z,13.20
2023-03-11T10:26:58.337Z,11.63
2023-03-11T10:29:56.282Z,16.55
2023-03-11T10:32:55.959Z,13.80
2023-03-11T10:35:29.187Z,9.88
2023-03-11T10:38:08.004Z,8.20
2023-03-11T10:40:38.409Z,9.20
2023-03-11T10:43:18.820Z,8.43
2023-03-11T10:45:48.862Z,16.75
2023-03-11T10:48:18.929Z,35.28
2023-03-11T10:50:52.656Z,15.75
2023-03-11T10:53:21.128Z,17.48
2023-03-11T10:55:53.620Z,12.30
2023-03-11T10:58:23.875Z,13.02
2023-03-11T11:01:01.558Z,11.70
2023-03-11T11:03:29.148Z,28.88
2023-03-11T11:06:18.393Z,20.75
2023-03-11T11:08:46.847Z,335.42
2023-03-11T11:11:23.079Z,239.63
2023-03-11T11:14:01.977Z,210.32
2023-03-11T11:16:34.250Z,431.42
2023-03-11T11:19:12.670Z,123.05
2023-03-11T11:21:43.547Z,113.30
2023-03-11T11:24:13.425Z,105.07
2023-03-11T11:26:40.828Z,16.50
2023-03-11T11:29:10.700Z,21.70
2023-03-11T11:31:46.062Z,106.47
2023-03-11T11:34:34.314Z,39.67
2023-03-11T11:37:08.884Z,48.33
2023-03-11T11:39:52.830Z,57.90
2023-03-11T11:42:20.755Z,146.18
2023-03-11T11:44:52.079Z,171.15
2023-03-11T11:47:27.784Z,248.45
2023-03-11T11:50:02.017Z,203.35
2023-03-11T11:52:37.759Z,129.68
2023-03-11T11:55:18.556Z,106.68
2023-03-11T11:57:46.447Z,102.93
2023-03-11T12:00:25.029Z,51.85
2023-03-11T12:03:12.712Z,46.78
2023-03-11T12:06:07.162Z,20.48
2023-03-11T12:08:45.662Z,23.65
2023-03-11T12:11:28.959Z,22.83
2023-03-11T12:14:20.300Z,14.05
2023-03-11T12:17:01.977Z,17.67
2023-03-11T12:19:43.353Z,27.75
2023-03-11T12:22:28.271Z,63.22
2023-03-11T12:25:15.124Z,80.95
2023-03-11T12:27:58.498Z,20.30
2023-03-11T12:30:32.874Z,11.55
2023-03-11T12:33:07.492Z,11.88
2023-03-11T12:35:37.042Z,28.88
2023-03-11T12:38:13.320Z,15.80
2023-03-11T12:40:49.994Z,16.23
2023-03-11T12:43:51.770Z,7.63
2023-03-11T12:46:42.360Z,12.15
2023-03-11T12:49:14.944Z,38.83
2023-03-11T12:52:09.327Z,51.50
2023-03-11T12:54:37.529Z,72.07
2023-03-11T12:57:17.242Z,40.25
2023-03-11T13:00:21.684Z,22.00
2023-03-11T13:03:30.098Z,23.30
2023-03-11T13:06:02.729Z,25.58
2023-03-11T13:08:48.401Z,14.65
2023-03-11T13:11:33.668Z,14.80
2023-03-11T13:14:18.198Z,25.13
2023-03-11T13:16:46.380Z,19.13
2023-03-11T13:19:34.559Z,12.05
2023-03-11T13:22:04.088Z,10.18
2023-03-11T13:24:31.481Z,6.55
2023-03-11T13:26:58.420Z,21.08
2023-03-11T13:29:45.178Z,49.03
2023-03-11T13:32:21.512Z,14.65
2023-03-11T13:35:03.637Z,12.48
2023-03-11T13:37:36.485Z,11.18
2023-03-11T13:40:14.161Z,8.13
2023-03-11T13:42:56.096Z,9.63
2023-03-11T13:45:35.153Z,11.43
2023-03-11T13:48:44.844Z,64.88
2023-03-11T13:51:27.780Z,136.45
2023-03-11T13:53:59.884Z,27.08
2023-03-11T13:56:31.207Z,29.42
2023-03-11T13:59:23.699Z,17.63
2023-03-11T14:02:00.966Z,11.18
2023-03-11T14:04:32.092Z,25.02
2023-03-11T14:07:35.339Z,71.47
2023-03-11T14:10:11.881Z,27.15
2023-03-11T14:12:39.978Z,44.47
2023-03-11T14:15:17.999Z,28.33
2023-03-11T14:17:48.676Z,19.27
2023-03-11T14:20:30.402Z,33.03
2023-03-11T14:22:57.838Z,18.02
2023-03-11T14:25:31.115Z,18.75
2023-03-11T14:28:05.833Z,14.73
2023-03-11T14:30:34.574Z,13.70
2023-03-11T14:33:05.193Z,10.07
2023-03-11T14:35:34.003Z,9.30
2023-03-11T14:38:01.867Z,19.58
2023-03-11T14:40:37.790Z,21.67
2023-03-11T14:43:08.186Z,27.67
2023-03-11T14:45:39.780Z,54.88
2023-03-11T14:48:32.830Z,55.47
2023-03-11T14:51:03.713Z,99.60
2023-03-11T14:53:39.289Z,173.23
2023-03-11T14:58:44.408Z,530.17
2023-03-11T15:01:20.527Z,160.20
2023-03-11T15:03:53.381Z,272.13
2023-03-11T15:06:25.789Z,93.53
2023-03-11T15:09:12.860Z,125.43
2023-03-11T15:11:55.248Z,214.45
2023-03-11T15:14:31.579Z,48.60
2023-03-11T15:17:35.437Z,35.15
2023-03-11T15:20:25.480Z,37.90
2023-03-11T15:23:02.059Z,73.78
2023-03-11T15:25:37.336Z,67.97
2023-03-11T15:28:28.930Z,32.13
2023-03-11T15:31:21.510Z,44.42
2023-03-11T15:33:51.789Z,52.50
2023-03-11T15:36:39.500Z,122.47
2023-03-11T15:39:18.718Z,83.25
2023-03-11T15:42:03.767Z,45.40
2023-03-11T15:44:54.638Z,26.35
2023-03-11T15:47:23.419Z,26.25
2023-03-11T15:49:51.606Z,22.90
2023-03-11T15:52:19.659Z,19.75
2023-03-11T15:54:55.011Z,24.25
2023-03-11T15:57:27.782Z,18.73
2023-03-11T16:00:00.316Z,12.88
2023-03-11T16:02:30.325Z,19.33
2023-03-11T16:04:59.506Z,20.27
2023-03-11T16:07:39.177Z,17.42
2023-03-11T16:10:08.779Z,20.98
2023-03-11T16:12:36.582Z,27.60
2023-03-11T16:15:07.478Z,26.67
2023-03-11T16:17:48.790Z,45.78
2023-03-11T16:20:16.373Z,29.85
2023-03-11T16:22:43.778Z,23.08
2023-03-11T16:25:31.274Z,23.27
2023-03-11T16:27:59.518Z,18.50
2023-03-11T16:30:28.480Z,19.90
2023-03-11T16:33:04.582Z,12.90
2023-03-11T16:35:32.705Z,12.70
2023-03-11T16:38:00.501Z,10.93
2023-03-11T16:40:31.735Z,21.98
2023-03-11T16:43:09.800Z,10.43
2023-03-11T16:45:37.269Z,13.73
2023-03-11T16:48:05.623Z,17.90
2023-03-11T16:50:37.534Z,55.25
2023-03-11T16:53:05.370Z,51.65
2023-03-11T16:55:33.642Z,21.95
2023-03-11T16:58:01.394Z,12.93
2023-03-11T17:00:28.892Z,16.75
2023-03-11T17:02:56.634Z,17.23
2023-03-11T17:05:23.932Z,10.15
2023-03-11T17:08:01.812Z,11.45
2023-03-11T17:10:29.352Z,13.40
2023-03-11T17:12:57.249Z,18.48
2023-03-11T17:15:27.505Z,20.13
2023-03-11T17:17:55.273Z,34.65
2023-03-11T17:20:22.667Z,34.88
2023-03-11T17:22:51.020Z,35.50
2023-03-11T17:25:18.544Z,26.85
2023-03-11T17:27:45.673Z,23.17
2023-03-11T17:30:14.913Z,34.53
2023-03-11T17:32:43.459Z,45.92
2023-03-11T17:35:10.838Z,21.23
2023-03-11T17:37:37.937Z,20.27
2023-03-11T17:40:05.823Z,19.80
2023-03-11T17:42:33.708Z,26.20
2023-03-11T17:45:01.598Z,25.73
2023-03-11T17:47:28.948Z,25.10
2023-03-11T17:49:56.589Z,44.15
2023-03-11T17:52:23.914Z,45.13
2023-03-11T17:54:53.453Z,51.38
2023-03-11T17:57:20.557Z,21.42
2023-03-11T17:59:52.632Z,23.67
2023-03-11T18:02:20.468Z,18.98
2023-03-11T18:04:55.424Z,19.50
2023-03-11T18:07:23.715Z,30.38
2023-03-11T18:09:53.230Z,29.58
2023-03-11T18:12:21.457Z,28.40
2023-03-11T18:14:49.432Z,43.13
2023-03-11T18:17:18.553Z,100.63
2023-03-11T18:19:46.441Z,35.85
2023-03-11T18:22:13.553Z,28.65
2023-03-11T18:24:40.942Z,24.73
2023-03-11T18:27:10.407Z,23.90
2023-03-11T18:29:37.880Z,22.98
2023-03-11T18:32:05.234Z,17.15
2023-03-11T18:34:33.121Z,25.23
2023-03-11T18:37:00.402Z,19.73
2023-03-11T18:39:28.045Z,27.88
2023-03-11T18:41:58.115Z,32.00
2023-03-11T18:44:25.887Z,28.65
2023-03-11T18:46:52.943Z,33.42
2023-03-11T18:49:20.399Z,37.50
2023-03-11T18:51:47.568Z,57.40
2023-03-11T18:54:15.130Z,59.55
2023-03-11T18:56:42.437Z,51.53
2023-03-11T18:59:12.085Z,27.08
2023-03-11T19:01:39.317Z,26.80
2023-03-11T19:04:07.006Z,46.40
2023-03-11T19:06:34.303Z,43.53
2023-03-11T19:09:03.641Z,48.03
2023-03-11T19:11:31.078Z,65.10
2023-03-11T19:14:01.859Z,67.57
2023-03-11T19:16:29.177Z,123.05
2023-03-11T19:18:56.632Z,118.13
2023-03-11T19:21:25.832Z,72.10
2023-03-11T19:23:55.385Z,32.53
2023-03-11T19:26:43.162Z,46.60
2023-03-11T19:29:12.086Z,43.85
2023-03-11T19:31:39.374Z,37.15
2023-03-11T19:34:11.148Z,29.08
2023-03-11T19:36:39.317Z,30.35
2023-03-11T19:39:07.042Z,27.80
2023-03-11T19:41:34.476Z,26.35
2023-03-11T19:44:04.327Z,22.17
2023-03-11T19:46:34.795Z,26.35
2023-03-11T19:49:03.404Z,38.92
2023-03-11T19:51:42.544Z,35.20
2023-03-11T19:54:16.582Z,31.98
2023-03-11T19:56:44.005Z,29.70
2023-03-11T19:59:11.740Z,27.20
2023-03-11T20:01:38.926Z,24.23
2023-03-11T20:04:06.544Z,19.40
2023-03-11T20:06:33.917Z,17.50
2023-03-11T20:09:01.672Z,17.23
2023-03-11T20:11:31.922Z,21.95
2023-03-11T20:14:01.285Z,21.08
2023-03-11T20:16:31.485Z,15.85
2023-03-11T20:18:59.351Z,34.25
2023-03-11T20:21:26.791Z,21.50
2023-03-11T20:23:57.522Z,35.72
2023-03-11T20:26:24.982Z,28.88
2023-03-11T20:28:56.332Z,22.85
2023-03-11T20:31:27.138Z,25.73
2023-03-11T20:33:56.460Z,26.02
2023-03-11T20:36:26.788Z,34.92
2023-03-11T20:38:55.346Z,32.42
2023-03-11T20:41:24.101Z,24.77
2023-03-11T20:43:53.345Z,28.70
2023-03-11T20:46:20.858Z,31.13
2023-03-11T20:48:48.317Z,28.73
2023-03-11T20:51:20.265Z,31.80
2023-03-11T20:53:49.228Z,32.58
2023-03-11T20:56:19.494Z,28.13
2023-03-11T20:58:50.910Z,27.83
2023-03-11T21:01:22.351Z,26.25
2023-03-11T21:03:52.293Z,26.55
2023-03-11T21:06:25.496Z,28.48
2023-03-11T21:08:57.960Z,45.35
2023-03-11T21:11:25.987Z,53.72
2023-03-11T21:13:57.207Z,30.60
2023-03-11T21:16:24.760Z,35.85
2023-03-11T21:18:53.850Z,23.02
2023-03-11T21:21:22.265Z,21.90
2023-03-11T21:23:50.029Z,25.13
2023-03-11T21:26:19.624Z,30.23
2023-03-11T21:28:47.903Z,63.58
2023-03-11T21:31:21.962Z,167.48
2023-03-11T21:33:53.167Z,78.30
2023-03-11T21:36:20.769Z,102.30
2023-03-11T21:38:48.762Z,68.00
2023-03-11T21:41:19.275Z,57.15
2023-03-11T21:43:49.172Z,55.83
2023-03-11T21:46:19.235Z,37.80
2023-03-11T21:48:47.505Z,37.45
2023-03-11T21:51:16.551Z,77.15
2023-03-11T21:53:44.058Z,122.60
2023-03-11T21:56:13.682Z,125.82
2023-03-11T21:58:43.534Z,90.55
2023-03-11T22:01:12.252Z,72.45
2023-03-11T22:03:39.657Z,65.53
2023-03-11T22:06:10.725Z,49.28
2023-03-11T22:08:37.906Z,52.10
2023-03-11T22:11:12.803Z,53.13
2023-03-11T22:13:40.059Z,51.85
2023-03-11T22:16:10.258Z,59.83
2023-03-11T22:18:39.570Z,67.30
2023-03-11T22:21:09.976Z,63.58
2023-03-11T22:23:37.526Z,66.13
2023-03-11T22:26:04.966Z,95.22
2023-03-11T22:28:32.437Z,54.17
2023-03-11T22:30:59.852Z,37.30
2023-03-11T22:33:27.104Z,44.67
2023-03-11T22:35:56.767Z,35.53
2023-03-11T22:38:24.309Z,44.38
2023-03-11T22:40:53.707Z,37.50
2023-03-11T22:43:20.716Z,28.58
2023-03-11T22:45:48.863Z,34.67
2023-03-11T22:48:19.029Z,20.17
2023-03-11T22:50:47.183Z,28.58
2023-03-11T22:53:15.230Z,36.63
2023-03-11T22:55:44.491Z,24.65
2023-03-11T22:58:12.780Z,24.00
2023-03-11T23:00:40.765Z,18.95
2023-03-11T23:03:07.766Z,18.77
2023-03-11T23:05:41.775Z,17.70
2023-03-11T23:08:29.058Z,18.23
2023-03-11T23:10:57.159Z,22.13
2023-03-11T23:13:24.224Z,19.90
2023-03-11T23:15:51.918Z,22.60
2023-03-11T23:18:20.382Z,26.00
2023-03-11T23:20:47.968Z,23.55
2023-03-11T23:23:15.112Z,18.25
2023-03-11T23:25:42.573Z,18.73
2023-03-11T23:28:09.717Z,17.35
2023-03-11T23:30:37.331Z,26.95
2023-03-11T23:33:05.783Z,15.38
2023-03-11T23:35:33.512Z,23.83
2023-03-11T23:38:00.912Z,23.17
2023-03-11T23:40:28.722Z,20.02
2023-03-11T23:42:55.865Z,18.10
2023-03-11T23:45:23.173Z,20.25
2023-03-11T23:47:50.355Z,16.55
2023-03-11T23:50:17.970Z,23.33
2023-03-11T23:52:45.187Z,29.60
2023-03-11T23:55:13.191Z,32.92
2023-03-11T23:57:40.676Z,25.55
